Labrador City, Canada
Current Conditions -  °F | °C
As of 6:00 PM on Thursday 18 Dec 2014 (Local Time) from CYWK Reporting Station
Scattered Clouds Scattered Clouds  
Wind Chill: -2°   Ceiling: Unl
Heat Index: -2°   Visibility: 15mi
Dew Point: -8°   Wind: 0mph
Humidity: 78%   Direction: NA
Pressure: 29.88"   Gusts: NA
Location:  52.95°N, 66.91°W
Report Text: CYWK 182200Z 00000KT 15SM FEW070 SCT280 M19/M22 A2988 RMK AS2CI2 SLP177
Loading
Personal Weather Stations






























Interactive Weather Map New forecast layout! Learn more

10-Day Weather Forecast

Advertisements
Track Severe Weather on mobile